MROCMSSS

Guest
Details From MROC - San Jose Juan Santamaria Intl
To MSSS - Ilopango Intl
Flight Number -
Tags Routegen Generated
Created
Modified
Stats Distance 367 nm / 680 km
Max Altitude 4,100 ft / 1,250 m
Waypoints 10
Social Downloads 2
Likes 0
Share

Download

Looking for another format? Having issues loading an existing format? Contact us
Advertisement - Login to hide

Notes

Departing runway 24 MROC. Arriving runway 15 MSSS.

Route

MROC +09.96_-084.29 +09.96_-084.35 +09.98_-084.40 +10.02_-084.45 +10.98_-085.67 +11.94_-086.90 +13.59_-089.04 +13.63_-089.08 MSSS

ID Type Via Altitude (ft/m) Position (lat/lon) Dist (leg/tot) Name
O MROC APT - 0 / 0 9.98900 / -84.22186 - / 0 nm
+09.96_-084.29 LATLON - 1,040 / 317 9.96296 / -84.29041 4 / 4 nm
+09.96_-084.35 LATLON - 4,100 / 1,250 9.96186 / -84.34918 3 / 7 nm
+09.98_-084.40 LATLON - 4,100 / 1,250 9.98062 / -84.40479 3 / 11 nm
+10.02_-084.45 LATLON - 4,100 / 1,250 10.01699 / -84.45053 3 / 14 nm
+10.98_-085.67 LATLON - 4,100 / 1,250 10.98283 / -85.66979 92 / 107 nm
+11.94_-086.90 LATLON - 4,100 / 1,250 11.94406 / -86.89954 92 / 199 nm
+13.59_-089.04 LATLON - 2,720 / 829 13.58563 / -89.03914 159 / 359 nm
+13.63_-089.08 LATLON - 1,040 / 317 13.62561 / -89.08223 3 / 362 nm
O MSSS APT - 0 / 0 13.69047 / -89.11526 4 / 367 nm

Altitude Profile

Advertisement - Login to hide

Weather


0- 5 10 15 20 25 30 35+ Temperature / °C

Clouds and Precipitation
Forecast for 2021-11-29 18:00 UTC. Updated 2 hours ago

Ground ~20,000 ft ~40,000 ft Winds

MROC

Details ICAO MROC (SJO)
Name Juan Santamaria Intl
Region Costa Rica
Timezone America/Costa_Rica (UTC-6.0)
Stats Elevation 3,047 ft / 929 m (AMSL)
Location 9.993980° -84.208700°
Runways 1
Magnetic Variation 2.296° W

METAR

MROC 291700Z 12010KT 080V170 9999 FEW045 SCT100 28/19 A2996 NOSIG

Decode

TAF

TAF MROC 291100Z 2912/3012 10010KT 9999 FEW040 SCT120 TX27/2917Z TN19/3011Z TEMPO 2915/2921 08010G20KT RA

Decode

Departure Runways

ID Width Length Bearing (true/mag) Surface Threshold Overrun Markings Lighting
07 148 ft / 45 m 10,075 ft / 3,071 m 69.18° / 71.48° ASPHALT 0 ft / 0 m 190 ft / 58 m PREC-APP EDGE THRESHOLD ALSF-II REIL-OMNI
25 148 ft / 45 m 10,075 ft / 3,071 m 249.19° / 251.48° ASPHALT 1,804 ft / 550 m 0 ft / 0 m PREC-APP EDGE THRESHOLD REIL-OMNI

MSSS

Details ICAO MSSS
Name ILOPANGO INTL
Region El Salvador
Timezone America/El_Salvador (UTC-6.0)
Stats Elevation 2,020 ft / 616 m (AMSL)
Location 13.698800° -89.119900°
Runways 1
Magnetic Variation 0.104° W

METAR

MSSS 291550Z 35011KT CAVOK 26/17 Q1018 A3007

Decode

TAF

Not found

Destination Runways

ID Width Length Bearing (true/mag) Surface Threshold Overrun Markings Lighting
15 148 ft / 45 m 7,350 ft / 2,240 m 153.66° / 153.77° ASPHALT 0 ft / 0 m 0 ft / 0 m APP CENTERLINE EDGE THRESHOLD RAIL TDZ REIL-OMNI
33 148 ft / 45 m 7,350 ft / 2,240 m 333.66° / 333.77° ASPHALT 0 ft / 0 m 0 ft / 0 m APP CENTERLINE EDGE THRESHOLD RAIL TDZ REIL-OMNI